createdAt,value
2022-10-17T00:00:29.709Z,28.50
2022-10-17T00:02:56.161Z,24.00
2022-10-17T00:05:23.542Z,27.00
2022-10-17T00:07:49.997Z,28.00
2022-10-17T00:10:17.364Z,27.50
2022-10-17T00:12:43.818Z,25.50
2022-10-17T00:15:11.202Z,28.50
2022-10-17T00:17:38.553Z,24.00
2022-10-17T00:20:05.057Z,26.50
2022-10-17T00:22:32.467Z,25.50
2022-10-17T00:24:58.935Z,27.00
2022-10-17T00:27:25.716Z,26.50
2022-10-17T00:29:52.483Z,25.00
2022-10-17T00:32:18.955Z,24.50
2022-10-17T00:34:45.407Z,25.50
2022-10-17T00:37:12.848Z,28.50
2022-10-17T00:39:40.227Z,25.67
2022-10-17T00:42:07.611Z,22.67
2022-10-17T00:44:34.066Z,25.00
2022-10-17T00:47:00.538Z,26.00
2022-10-17T00:49:26.993Z,29.50
2022-10-17T00:51:53.431Z,27.00
2022-10-17T00:54:19.872Z,30.00
2022-10-17T00:56:46.322Z,28.00
2022-10-17T00:59:12.776Z,23.50
2022-10-17T01:01:39.293Z,28.00
2022-10-17T01:04:05.777Z,25.50
2022-10-17T01:06:32.238Z,27.00
2022-10-17T01:08:58.702Z,27.00
2022-10-17T01:11:25.162Z,26.00
2022-10-17T01:13:51.613Z,29.50
2022-10-17T01:16:19.011Z,29.50
2022-10-17T01:18:46.364Z,22.33
2022-10-17T01:21:12.854Z,26.00
2022-10-17T01:23:39.314Z,28.00
2022-10-17T01:26:05.755Z,30.00
2022-10-17T01:28:33.233Z,30.00
2022-10-17T01:30:59.758Z,26.00
2022-10-17T01:33:26.224Z,29.50
2022-10-17T01:35:53.600Z,26.50
2022-10-17T01:38:21.042Z,26.00
2022-10-17T01:40:47.511Z,29.50
2022-10-17T01:43:13.989Z,27.00
2022-10-17T01:45:40.486Z,30.00
2022-10-17T01:48:07.854Z,25.50
2022-10-17T01:50:35.224Z,25.00
2022-10-17T01:53:01.670Z,27.00
2022-10-17T01:55:28.129Z,29.00
2022-10-17T01:57:54.583Z,26.00
2022-10-17T02:00:21.040Z,27.00
2022-10-17T02:02:47.494Z,28.50
2022-10-17T02:05:14.906Z,25.00
2022-10-17T02:07:41.356Z,27.00
2022-10-17T02:10:08.763Z,24.00
2022-10-17T02:12:35.226Z,29.50
2022-10-17T02:15:01.736Z,28.50
2022-10-17T02:17:28.453Z,26.00
2022-10-17T02:19:55.092Z,26.00
2022-10-17T02:22:22.476Z,27.50
2022-10-17T02:24:48.914Z,28.50
2022-10-17T02:27:15.394Z,25.50
2022-10-17T02:29:41.848Z,24.00
2022-10-17T02:32:09.309Z,27.50
2022-10-17T02:34:35.790Z,27.00
2022-10-17T02:37:02.248Z,30.00
2022-10-17T02:39:29.642Z,26.50
2022-10-17T02:41:57.072Z,27.50
2022-10-17T02:44:23.576Z,29.00
2022-10-17T02:46:50.041Z,29.00
2022-10-17T02:49:16.519Z,29.50
2022-10-17T02:51:42.980Z,30.50
2022-10-17T02:54:09.447Z,33.50
2022-10-17T02:56:35.899Z,33.00
2022-10-17T02:59:02.367Z,29.00
2022-10-17T03:01:28.838Z,31.00
2022-10-17T03:03:56.271Z,30.67
2022-10-17T03:06:22.730Z,31.00
2022-10-17T03:08:50.106Z,25.50
2022-10-17T03:11:17.485Z,29.50
2022-10-17T03:13:43.942Z,28.00
2022-10-17T03:16:11.293Z,28.50
2022-10-17T03:18:37.798Z,34.50
2022-10-17T03:21:05.200Z,31.50
2022-10-17T03:23:31.646Z,28.00
2022-10-17T03:25:58.139Z,31.00
2022-10-17T03:28:24.631Z,31.00
2022-10-17T03:30:52.043Z,30.50
2022-10-17T03:33:19.409Z,25.00
2022-10-17T03:35:46.017Z,33.00
2022-10-17T03:38:12.505Z,35.00
2022-10-17T03:40:39.096Z,24.00
2022-10-17T03:43:05.547Z,34.00
2022-10-17T03:45:32.927Z,31.00
2022-10-17T03:47:59.382Z,30.00
2022-10-17T03:50:26.751Z,29.50
2022-10-17T03:52:53.202Z,29.50
2022-10-17T03:55:20.577Z,25.00
2022-10-17T03:57:47.054Z,28.00
2022-10-17T04:00:14.438Z,24.33
2022-10-17T04:02:41.853Z,26.67
2022-10-17T04:05:08.334Z,29.00
2022-10-17T04:07:35.725Z,21.00
2022-10-17T04:10:02.157Z,28.00
2022-10-17T04:12:28.879Z,21.50
2022-10-17T04:14:56.359Z,24.50
2022-10-17T04:17:22.856Z,25.00
2022-10-17T04:19:49.330Z,23.00
2022-10-17T04:22:16.711Z,24.00
2022-10-17T04:24:43.207Z,28.50
2022-10-17T04:27:09.654Z,24.50
2022-10-17T04:29:36.122Z,26.50
2022-10-17T04:32:02.574Z,30.00
2022-10-17T04:34:29.942Z,28.50
2022-10-17T04:36:56.407Z,30.00
2022-10-17T04:39:22.868Z,25.50
2022-10-17T04:41:50.246Z,31.00
2022-10-17T04:44:17.621Z,25.00
2022-10-17T04:46:44.064Z,23.50
2022-10-17T04:49:11.471Z,23.50
2022-10-17T04:51:37.910Z,24.00
2022-10-17T04:54:05.274Z,26.00
2022-10-17T04:56:32.644Z,24.50
2022-10-17T04:58:59.111Z,25.50
2022-10-17T05:01:26.614Z,27.50
2022-10-17T05:03:53.229Z,28.00
2022-10-17T05:06:20.598Z,25.50
2022-10-17T05:08:47.062Z,27.50
2022-10-17T05:11:14.478Z,25.50
2022-10-17T05:13:40.926Z,31.00
2022-10-17T05:16:07.431Z,31.50
2022-10-17T05:18:33.906Z,27.00
2022-10-17T05:21:01.339Z,29.00
2022-10-17T05:23:27.826Z,29.50
2022-10-17T05:25:54.280Z,33.50
2022-10-17T05:28:21.097Z,34.50
2022-10-17T05:30:48.528Z,32.50
2022-10-17T05:33:15.926Z,32.50
2022-10-17T05:35:42.381Z,30.50
2022-10-17T05:38:09.864Z,31.00
2022-10-17T05:40:36.313Z,36.50
2022-10-17T05:43:03.995Z,33.33
2022-10-17T05:45:30.647Z,34.00
2022-10-17T05:47:58.336Z,31.00
2022-10-17T05:50:25.998Z,32.00
2022-10-17T05:52:53.454Z,28.50
2022-10-17T05:55:20.846Z,30.00
2022-10-17T05:57:47.304Z,34.00
2022-10-17T06:00:15.001Z,31.00
2022-10-17T06:02:42.394Z,31.33
2022-10-17T06:05:08.874Z,39.00
2022-10-17T06:07:35.399Z,39.00
2022-10-17T06:10:02.849Z,39.33
2022-10-17T06:12:30.665Z,41.00
2022-10-17T06:14:58.353Z,40.00
2022-10-17T06:17:25.753Z,42.67
2022-10-17T06:19:53.248Z,39.67
2022-10-17T06:22:20.709Z,38.33
2022-10-17T06:24:50.053Z,37.67
2022-10-17T06:27:17.457Z,38.33
2022-10-17T06:29:43.951Z,37.00
2022-10-17T06:32:12.771Z,38.00
2022-10-17T06:34:42.430Z,39.00
2022-10-17T06:37:09.828Z,38.67
2022-10-17T06:39:36.285Z,36.00
2022-10-17T06:42:03.707Z,35.67
2022-10-17T06:44:31.093Z,37.33
2022-10-17T06:46:58.475Z,37.33
2022-10-17T06:49:25.905Z,36.00
2022-10-17T06:51:53.261Z,33.00
2022-10-17T06:54:20.659Z,36.33
2022-10-17T06:56:48.051Z,41.33
2022-10-17T06:59:15.412Z,38.00
2022-10-17T07:01:44.572Z,39.50
2022-10-17T07:04:14.468Z,36.67
2022-10-17T07:06:41.856Z,35.67
2022-10-17T07:09:08.310Z,39.00
2022-10-17T07:11:35.734Z,35.67
2022-10-17T07:14:02.205Z,35.00
2022-10-17T07:16:29.617Z,35.00
2022-10-17T07:18:56.984Z,35.67
2022-10-17T07:21:23.465Z,34.00
2022-10-17T07:23:50.881Z,34.00
2022-10-17T07:26:17.369Z,39.50
2022-10-17T07:28:43.835Z,35.00
2022-10-17T07:31:10.326Z,40.50
2022-10-17T07:33:37.758Z,36.33
2022-10-17T07:36:06.010Z,35.50
2022-10-17T07:38:33.417Z,35.00
2022-10-17T07:40:59.863Z,34.00
2022-10-17T07:43:27.285Z,35.00
2022-10-17T07:45:53.733Z,38.00
2022-10-17T07:48:21.113Z,35.50
2022-10-17T07:50:48.513Z,36.67
2022-10-17T07:53:14.983Z,38.00
2022-10-17T07:55:42.377Z,34.33
2022-10-17T07:58:08.930Z,33.50
2022-10-17T08:00:35.460Z,34.50
2022-10-17T08:03:02.902Z,30.67
2022-10-17T08:05:30.318Z,34.00
2022-10-17T08:07:56.790Z,39.00
2022-10-17T08:10:24.157Z,33.00
2022-10-17T08:12:51.564Z,32.00
2022-10-17T08:15:18.029Z,32.50
2022-10-17T08:17:44.491Z,34.50
2022-10-17T08:20:11.896Z,32.50
2022-10-17T08:22:38.353Z,34.00
2022-10-17T08:25:04.862Z,32.50
2022-10-17T08:27:31.313Z,31.00
2022-10-17T08:29:57.755Z,27.50
2022-10-17T08:32:25.163Z,32.00
2022-10-17T08:34:52.640Z,27.67
2022-10-17T08:37:20.057Z,31.00
2022-10-17T08:39:47.411Z,31.33
2022-10-17T08:42:14.751Z,29.50
2022-10-17T08:44:41.209Z,29.50
2022-10-17T08:47:07.755Z,29.50
2022-10-17T08:49:35.117Z,31.67
2022-10-17T08:52:02.512Z,30.67
2022-10-17T08:54:29.034Z,31.00
2022-10-17T08:56:55.502Z,29.50
2022-10-17T08:59:22.082Z,32.00
2022-10-17T09:01:48.543Z,33.50
2022-10-17T09:04:14.975Z,34.00
2022-10-17T09:06:41.429Z,32.00
2022-10-17T09:09:07.905Z,36.00
2022-10-17T09:11:34.344Z,33.00
2022-10-17T09:14:01.726Z,32.67
2022-10-17T09:16:29.088Z,35.00
2022-10-17T09:18:56.448Z,36.00
2022-10-17T09:21:23.828Z,33.67
2022-10-17T09:23:53.290Z,32.50
2022-10-17T09:26:27.026Z,33.67
2022-10-17T09:28:53.642Z,31.00
2022-10-17T09:31:21.048Z,33.00
2022-10-17T09:33:55.644Z,36.67
2022-10-17T09:36:23.059Z,37.00
2022-10-17T09:38:50.499Z,34.00
2022-10-17T09:41:42.856Z,35.00
2022-10-17T09:44:04.308Z,35.33
2022-10-17T09:46:30.744Z,33.00
2022-10-17T09:48:58.342Z,32.67
2022-10-17T09:51:26.382Z,36.00
2022-10-17T09:53:53.868Z,33.67
2022-10-17T09:56:20.328Z,36.00
2022-10-17T09:58:47.717Z,32.33
2022-10-17T10:01:14.240Z,33.00
2022-10-17T10:03:40.715Z,33.50
2022-10-17T10:06:07.181Z,31.00
2022-10-17T10:08:34.581Z,33.33
2022-10-17T10:11:01.996Z,36.00
2022-10-17T10:13:29.383Z,34.67
2022-10-17T10:15:55.845Z,34.50
2022-10-17T10:18:23.308Z,33.00
2022-10-17T10:20:49.839Z,34.50
2022-10-17T10:23:16.307Z,34.00
2022-10-17T10:25:43.701Z,31.00
2022-10-17T10:28:10.187Z,32.50
2022-10-17T10:30:39.148Z,32.50
2022-10-17T10:33:07.539Z,36.00
2022-10-17T10:35:34.938Z,33.00
2022-10-17T10:38:01.401Z,32.50
2022-10-17T10:40:27.856Z,32.00
2022-10-17T10:42:54.390Z,33.00
2022-10-17T10:45:43.259Z,33.00
2022-10-17T10:48:08.208Z,32.50
2022-10-17T10:50:34.653Z,31.00
2022-10-17T10:53:02.097Z,30.50
2022-10-17T10:55:28.553Z,30.50
2022-10-17T10:57:55.010Z,27.50
2022-10-17T11:00:21.491Z,24.00
2022-10-17T11:02:47.944Z,24.50
2022-10-17T11:05:15.333Z,23.50
2022-10-17T11:07:42.795Z,24.00
2022-10-17T11:10:10.169Z,24.00
2022-10-17T11:12:36.641Z,25.00
2022-10-17T11:15:04.069Z,25.00
2022-10-17T11:17:30.770Z,26.50
2022-10-17T11:19:58.521Z,24.00
2022-10-17T11:22:28.185Z,27.00
2022-10-17T11:24:55.819Z,26.00
2022-10-17T11:27:22.260Z,24.00
2022-10-17T11:29:48.713Z,22.00
2022-10-17T11:32:15.190Z,24.50
2022-10-17T11:34:42.578Z,26.00
2022-10-17T11:37:09.021Z,24.00
2022-10-17T11:39:36.444Z,27.50
2022-10-17T11:42:04.324Z,28.00
2022-10-17T11:44:31.789Z,28.00
2022-10-17T11:46:58.435Z,31.00
2022-10-17T11:49:24.974Z,25.00
2022-10-17T11:52:01.187Z,25.50
2022-10-17T11:54:28.341Z,31.50
2022-10-17T11:56:54.926Z,26.50
2022-10-17T11:59:23.120Z,27.00
2022-10-17T12:01:50.496Z,28.00
2022-10-17T12:04:17.940Z,26.00
2022-10-17T12:06:44.474Z,31.00
2022-10-17T12:09:11.874Z,27.50
2022-10-17T12:11:38.356Z,28.50
2022-10-17T12:14:06.179Z,27.50
2022-10-17T12:16:34.098Z,26.00
2022-10-17T12:19:00.621Z,25.00
2022-10-17T12:21:31.258Z,30.00
2022-10-17T12:23:59.532Z,29.00
2022-10-17T12:26:26.916Z,28.00
2022-10-17T12:28:54.338Z,29.00
2022-10-17T12:31:21.747Z,28.50
2022-10-17T12:33:48.215Z,30.00
2022-10-17T12:36:14.695Z,26.50
2022-10-17T12:38:42.048Z,29.50
2022-10-17T12:41:08.541Z,25.00
2022-10-17T12:43:35.036Z,23.50
2022-10-17T12:46:01.625Z,29.00
2022-10-17T12:48:29.008Z,29.00
2022-10-17T12:50:56.553Z,26.50
2022-10-17T12:53:28.139Z,32.00
2022-10-17T12:55:54.606Z,31.00
2022-10-17T12:58:21.058Z,31.00
2022-10-17T13:01:05.314Z,27.50
2022-10-17T13:03:34.886Z,31.00
2022-10-17T13:06:01.348Z,31.50
2022-10-17T13:08:28.012Z,30.00
2022-10-17T13:10:55.377Z,27.50
2022-10-17T13:13:21.836Z,27.50
2022-10-17T13:15:48.290Z,31.00
2022-10-17T13:18:15.653Z,31.00
2022-10-17T13:20:42.131Z,27.00
2022-10-17T13:23:08.596Z,31.00
2022-10-17T13:25:38.809Z,31.00
2022-10-17T13:28:06.029Z,33.50
2022-10-17T13:30:33.400Z,31.00
2022-10-17T13:32:59.872Z,30.00
2022-10-17T13:35:36.561Z,30.33
2022-10-17T13:38:13.794Z,31.00
2022-10-17T13:40:49.469Z,31.67
2022-10-17T13:43:17.982Z,33.00
2022-10-17T13:45:44.513Z,30.00
2022-10-17T13:48:11.898Z,33.00
2022-10-17T13:50:45.521Z,29.50
2022-10-17T13:53:12.924Z,33.00
2022-10-17T13:55:39.418Z,32.00
2022-10-17T13:58:05.886Z,33.00
2022-10-17T14:00:32.398Z,30.00
2022-10-17T14:02:59.860Z,30.50
2022-10-17T14:05:27.255Z,31.00
2022-10-17T14:10:40.143Z,31.00
2022-10-17T14:13:06.607Z,27.00
2022-10-17T14:15:33.069Z,28.50
2022-10-17T14:18:00.244Z,33.00
2022-10-17T14:21:08.229Z,32.00
2022-10-17T14:23:22.840Z,30.00
2022-10-17T14:25:49.660Z,31.50
2022-10-17T14:28:16.118Z,23.50
2022-10-17T14:30:56.236Z,28.50
2022-10-17T14:33:23.977Z,28.50
2022-10-17T14:35:50.435Z,29.00
2022-10-17T14:38:17.824Z,33.00
2022-10-17T14:40:44.358Z,31.50
2022-10-17T14:43:11.737Z,31.50
2022-10-17T14:45:39.114Z,32.00
2022-10-17T14:48:05.628Z,31.00
2022-10-17T14:50:32.146Z,33.00
2022-10-17T14:52:59.524Z,32.00
2022-10-17T14:55:25.986Z,30.00
2022-10-17T14:57:52.445Z,28.00
2022-10-17T15:00:19.828Z,31.00
2022-10-17T15:02:46.285Z,29.00
2022-10-17T15:05:13.562Z,33.00
2022-10-17T15:07:41.146Z,33.00
2022-10-17T15:10:07.713Z,30.50
2022-10-17T15:12:34.169Z,33.00
2022-10-17T15:15:00.642Z,32.00
2022-10-17T15:17:28.050Z,30.33
2022-10-17T15:19:54.513Z,30.50
2022-10-17T15:22:21.924Z,32.50
2022-10-17T15:24:49.310Z,32.00
2022-10-17T15:27:16.747Z,28.00
2022-10-17T15:29:43.193Z,28.50
2022-10-17T15:32:09.721Z,25.50
2022-10-17T15:34:37.402Z,26.50
2022-10-17T15:37:04.817Z,28.50
2022-10-17T15:39:32.189Z,26.00
2022-10-17T15:41:58.642Z,28.00
2022-10-17T15:44:26.040Z,30.67
2022-10-17T15:46:52.496Z,27.00
2022-10-17T15:49:19.949Z,31.50
2022-10-17T15:51:47.747Z,29.50
2022-10-17T15:54:15.825Z,30.50
2022-10-17T15:56:43.253Z,30.33
2022-10-17T15:59:09.690Z,33.00
2022-10-17T16:01:36.160Z,30.00
2022-10-17T16:04:02.615Z,32.50
2022-10-17T16:06:29.186Z,31.50
2022-10-17T16:08:55.677Z,33.00
2022-10-17T16:11:22.151Z,32.00
2022-10-17T16:13:49.554Z,30.67
2022-10-17T16:16:16.087Z,31.00
2022-10-17T16:18:42.534Z,31.00
2022-10-17T16:21:08.996Z,31.00
2022-10-17T16:23:35.481Z,25.50
2022-10-17T16:26:02.005Z,31.00
2022-10-17T16:28:28.504Z,33.50
2022-10-17T16:30:54.996Z,30.50
2022-10-17T16:33:21.468Z,31.50
2022-10-17T16:35:47.921Z,31.50
2022-10-17T16:38:14.403Z,32.00
2022-10-17T16:40:40.874Z,32.00
2022-10-17T16:43:08.286Z,32.00
2022-10-17T16:45:34.737Z,31.50
2022-10-17T16:48:01.216Z,31.50
2022-10-17T16:50:27.691Z,29.50
2022-10-17T16:52:54.219Z,33.00
2022-10-17T16:55:21.628Z,30.50
2022-10-17T16:57:48.092Z,32.00
2022-10-17T17:00:15.492Z,31.50
2022-10-17T17:02:41.940Z,31.50
2022-10-17T17:05:08.480Z,31.00
2022-10-17T17:07:35.871Z,30.67
2022-10-17T17:10:02.319Z,32.00
2022-10-17T17:12:28.798Z,30.50
2022-10-17T17:14:56.173Z,33.00
2022-10-17T17:17:36.901Z,27.33
2022-10-17T17:20:10.009Z,31.00
2022-10-17T17:22:36.499Z,28.50
2022-10-17T17:25:02.985Z,32.50
2022-10-17T17:27:29.751Z,33.00
2022-10-17T17:29:57.555Z,28.50
2022-10-17T17:32:24.988Z,26.50
2022-10-17T17:34:51.488Z,28.50
2022-10-17T17:37:18.944Z,33.00
2022-10-17T17:39:45.407Z,32.50
2022-10-17T17:42:12.784Z,28.00
2022-10-17T17:44:40.178Z,30.00
2022-10-17T17:47:07.639Z,32.67
2022-10-17T17:49:34.107Z,30.50
2022-10-17T17:54:28.814Z,32.00
2022-10-17T17:56:55.332Z,31.00
2022-10-17T17:59:21.822Z,32.50
2022-10-17T18:01:48.341Z,31.00
2022-10-17T18:04:14.854Z,30.50
2022-10-17T18:06:41.352Z,31.00
2022-10-17T18:09:07.883Z,32.50
2022-10-17T18:11:34.364Z,30.50
2022-10-17T18:14:00.890Z,35.00
2022-10-17T18:16:27.356Z,31.00
2022-10-17T18:18:53.846Z,33.00
2022-10-17T18:21:20.302Z,34.50
2022-10-17T18:23:46.755Z,36.00
2022-10-17T18:26:14.149Z,36.67
2022-10-17T18:31:08.119Z,29.00
2022-10-17T18:33:35.511Z,31.00
2022-10-17T18:36:06.078Z,36.00
2022-10-17T18:38:34.452Z,35.33
2022-10-17T18:41:01.831Z,36.00
2022-10-17T18:43:28.295Z,31.00
2022-10-17T18:45:54.774Z,36.00
2022-10-17T18:48:22.208Z,36.33
2022-10-17T18:50:49.668Z,33.67
2022-10-17T18:53:16.082Z,33.00
2022-10-17T18:55:42.597Z,35.50
2022-10-17T18:58:09.100Z,38.00
2022-10-17T19:00:35.553Z,37.00
2022-10-17T19:03:02.035Z,36.00
2022-10-17T19:05:29.439Z,32.33
2022-10-17T19:07:55.940Z,33.00
2022-10-17T19:10:23.338Z,36.00
2022-10-17T19:12:50.741Z,35.00
2022-10-17T19:15:19.454Z,36.50
2022-10-17T19:17:47.688Z,33.00
2022-10-17T19:20:15.061Z,34.50
2022-10-17T19:22:42.533Z,33.00
2022-10-17T19:25:09.051Z,38.00
2022-10-17T19:27:36.495Z,35.67
2022-10-17T19:30:02.990Z,33.00
2022-10-17T19:32:29.677Z,35.00
2022-10-17T19:34:56.509Z,33.00
2022-10-17T19:37:22.954Z,32.50
2022-10-17T19:39:50.332Z,33.00
2022-10-17T19:42:17.699Z,34.00
2022-10-17T19:44:45.105Z,31.67
2022-10-17T19:47:11.602Z,36.50
2022-10-17T19:49:38.976Z,36.00
2022-10-17T19:52:06.537Z,38.33
2022-10-17T19:54:33.943Z,34.00
2022-10-17T19:57:00.402Z,35.50
2022-10-17T19:59:26.890Z,33.50
2022-10-17T20:01:53.506Z,33.00
2022-10-17T20:04:20.975Z,33.50
2022-10-17T20:06:47.431Z,34.00
2022-10-17T20:09:17.050Z,33.50
2022-10-17T20:11:44.028Z,34.50
2022-10-17T20:14:10.564Z,32.00
2022-10-17T20:16:37.036Z,33.00
2022-10-17T20:19:03.494Z,33.00
2022-10-17T20:21:29.952Z,33.00
2022-10-17T20:23:56.410Z,29.50
2022-10-17T20:26:37.658Z,30.67
2022-10-17T20:29:05.023Z,29.50
2022-10-17T20:31:32.449Z,27.50
2022-10-17T20:33:58.950Z,30.50
2022-10-17T20:36:25.422Z,30.00
2022-10-17T20:38:51.875Z,31.00
2022-10-17T20:41:19.290Z,33.50
2022-10-17T20:43:45.745Z,31.50
2022-10-17T20:46:29.371Z,30.00
2022-10-17T20:48:59.586Z,33.00
2022-10-17T20:51:26.026Z,32.50
2022-10-17T20:53:52.520Z,29.50
2022-10-17T20:56:19.966Z,30.50
2022-10-17T20:58:46.430Z,33.50
2022-10-17T21:01:13.845Z,32.00
2022-10-17T21:03:44.050Z,30.00
2022-10-17T21:06:12.982Z,30.00
2022-10-17T21:08:39.451Z,31.50
2022-10-17T21:11:05.903Z,26.00
2022-10-17T21:13:32.392Z,35.00
2022-10-17T21:15:58.849Z,34.50
2022-10-17T21:18:26.236Z,29.50
2022-10-17T21:20:53.696Z,30.33
2022-10-17T21:23:21.150Z,32.50
2022-10-17T21:25:47.620Z,31.50
2022-10-17T21:28:14.975Z,32.50
2022-10-17T21:30:41.428Z,30.50
2022-10-17T21:33:08.075Z,31.00
2022-10-17T21:35:34.595Z,30.50
2022-10-17T21:38:01.059Z,32.50
2022-10-17T21:40:27.520Z,33.00
2022-10-17T21:42:53.975Z,30.00
2022-10-17T21:45:25.862Z,31.00
2022-10-17T21:48:11.851Z,30.50
2022-10-17T21:50:39.065Z,36.50
2022-10-17T21:53:05.522Z,33.00
2022-10-17T21:55:31.968Z,31.50
2022-10-17T21:57:58.496Z,33.00
2022-10-17T22:00:24.934Z,32.50
2022-10-17T22:02:51.387Z,35.00
2022-10-17T22:05:17.849Z,33.00
2022-10-17T22:07:45.237Z,30.00
2022-10-17T22:10:12.598Z,31.00
2022-10-17T22:12:39.998Z,31.33
2022-10-17T22:15:06.477Z,31.50
2022-10-17T22:17:33.160Z,31.00
2022-10-17T22:19:59.853Z,34.00
2022-10-17T22:22:26.314Z,31.50
2022-10-17T22:24:52.792Z,28.50
2022-10-17T22:27:20.239Z,31.33
2022-10-17T22:29:46.689Z,33.00
2022-10-17T22:32:17.510Z,31.00
2022-10-17T22:34:48.333Z,28.00
2022-10-17T22:37:15.831Z,28.50
2022-10-17T22:39:42.301Z,27.00
2022-10-17T22:42:08.873Z,29.50
2022-10-17T22:44:35.376Z,30.50
2022-10-17T22:47:01.849Z,28.50
2022-10-17T22:49:29.232Z,27.00
2022-10-17T22:51:55.688Z,30.00
2022-10-17T22:54:22.215Z,25.50
2022-10-17T22:56:48.680Z,28.50
2022-10-17T22:59:16.062Z,29.00
2022-10-17T23:01:43.468Z,28.00
2022-10-17T23:04:10.908Z,28.00
2022-10-17T23:06:38.278Z,28.50
2022-10-17T23:09:05.691Z,27.50
2022-10-17T23:11:32.189Z,28.50
2022-10-17T23:13:58.625Z,25.50
2022-10-17T23:16:25.074Z,24.50
2022-10-17T23:18:51.531Z,25.00
2022-10-17T23:21:18.921Z,25.00
2022-10-17T23:23:46.331Z,29.50
2022-10-17T23:26:12.773Z,27.00
2022-10-17T23:28:39.284Z,27.00
2022-10-17T23:31:05.798Z,28.50
2022-10-17T23:33:32.260Z,26.00
2022-10-17T23:35:58.704Z,25.00
2022-10-17T23:38:25.161Z,28.00
2022-10-17T23:40:51.595Z,25.50
2022-10-17T23:43:18.992Z,29.00
2022-10-17T23:45:45.496Z,26.00
2022-10-17T23:48:12.859Z,27.00
2022-10-17T23:50:39.315Z,25.00
2022-10-17T23:53:05.766Z,25.00
2022-10-17T23:55:32.215Z,19.50
2022-10-17T23:57:58.666Z,22.50
